Time;durP1;ratioP1;P1;durP2;ratioP2;P2;SDS_P1;SDS_P2;PMS_P1;PMS_P2;Temp;Humidity;BMP_temperature;BMP_pressure;BME280_temperature;BME280_humidity;BME280_pressure;Samples;Min_cycle;Max_cycle;Signal;HPM_P1;HPM_P2
2021/04/26 00:00:28;;;;;;;20.75;7.60;;;;;;;2.60;44.02;99252.16;114950;1202;103106;-75
2021/04/26 00:03:15;;;;;;;;;;;;;;;2.55;44.35;99256.72;114949;1208;103040;-74
2021/04/26 00:05:42;;;;;;;23.80;8.10;;;;;;;2.52;44.04;99250.66;114980;1201;103187;-75
2021/04/26 00:08:10;;;;;;;24.77;9.00;;;;;;;2.52;44.79;99248.03;114870;1203;103089;-74
2021/04/26 00:10:37;;;;;;;24.57;9.13;;;;;;;2.48;44.25;99249.06;115020;1203;103181;-72
2021/04/26 00:13:09;;;;;;;25.83;9.27;;;;;;;2.45;44.14;99253.58;114974;1203;103174;-74
2021/04/26 00:15:45;;;;;;;28.30;9.93;;;;;;;2.40;44.78;99258.14;114910;1202;103040;-78
2021/04/26 00:18:15;;;;;;;23.00;8.80;;;;;;;2.34;44.52;99253.97;114936;1203;103089;-78
2021/04/26 00:20:44;;;;;;;24.60;9.40;;;;;;;2.33;44.36;99254.89;114896;1203;103117;-75
2021/04/26 00:23:14;;;;;;;22.40;8.30;;;;;;;2.31;44.66;99252.30;114845;1203;103139;-75
2021/04/26 00:25:44;;;;;;;25.85;8.90;;;;;;;2.28;44.38;99260.28;114909;1202;103177;-75
2021/04/26 00:28:11;;;;;;;22.87;9.07;;;;;;;2.23;45.08;99263.08;114856;1203;103117;-76
2021/04/26 00:30:38;;;;;;;26.90;9.10;;;;;;;2.21;44.61;99266.69;114860;1203;103073;-75
2021/04/26 00:33:09;;;;;;;27.63;9.00;;;;;;;2.14;44.83;99267.80;114939;1202;103083;-75
2021/04/26 00:35:37;;;;;;;22.90;8.35;;;;;;;2.11;44.97;99260.88;115014;1203;103053;-75
2021/04/26 00:38:05;;;;;;;25.57;8.53;;;;;;;2.10;44.67;99263.57;115004;1203;103325;-74
2021/04/26 00:40:32;;;;;;;25.85;8.50;;;;;;;2.10;44.62;99258.32;114969;1203;103151;-75
2021/04/26 00:42:59;;;;;;;21.13;8.17;;;;;;;2.09;44.98;99265.32;114921;1203;103117;-76
2021/04/26 00:45:27;;;;;;;24.90;8.80;;;;;;;2.07;44.69;99259.27;114922;1203;103072;-75
2021/04/26 00:47:55;;;;;;;24.43;8.20;;;;;;;2.05;44.76;99256.71;114961;1202;103188;-75
2021/04/26 00:50:29;;;;;;;21.90;8.40;;;;;;;2.05;45.20;99256.71;114646;1203;103121;-75
2021/04/26 00:53:01;;;;;;;20.30;7.45;;;;;;;2.04;45.32;99256.75;114918;1202;103038;-74
2021/04/26 00:55:34;;;;;;;24.65;9.40;;;;;;;2.05;45.29;99263.71;114765;1203;103152;-74
2021/04/26 00:58:03;;;;;;;22.10;8.40;;;;;;;2.07;45.54;99269.77;114994;1203;103156;-73
2021/04/26 01:00:33;;;;;;;22.05;8.95;;;;;;;2.05;45.08;99268.96;114977;1202;103084;-75
2021/04/26 01:03:03;;;;;;;21.55;7.10;;;;;;;1.99;45.14;99271.82;115000;1203;103194;-75
2021/04/26 01:05:35;;;;;;;22.10;7.90;;;;;;;1.95;45.44;99276.30;114717;1202;103133;-75
2021/04/26 01:08:06;;;;;;;21.73;7.67;;;;;;;1.93;45.46;99275.49;114971;1203;103066;-75
2021/04/26 01:10:35;;;;;;;23.07;8.70;;;;;;;1.85;45.34;99273.14;114827;1202;103152;-77
2021/04/26 01:13:09;;;;;;;23.20;8.30;;;;;;;1.81;45.49;99278.55;115012;1202;103063;-75
2021/04/26 01:16:05;;;;;;;21.70;8.35;;;;;;;1.74;45.17;99268.26;114932;1203;103063;-75
2021/04/26 01:18:46;;;;;;;22.43;8.30;;;;;;;1.71;45.86;99275.34;114874;1203;103271;-74
2021/04/26 01:21:45;;;;;;;24.20;8.70;;;;;;;1.70;45.61;99271.02;114696;1201;103155;-75
2021/04/26 01:24:55;;;;;;;19.80;7.07;;;;;;;1.69;45.54;99270.17;114863;1203;103149;-75
2021/04/26 01:27:41;;;;;;;22.65;8.35;;;;;;;1.68;45.55;99270.20;115010;1202;103139;-72
2021/04/26 01:30:30;;;;;;;23.50;8.60;;;;;;;1.68;45.82;99272.83;115018;1202;103561;-73
2021/04/26 01:33:14;;;;;;;26.70;7.75;;;;;;;1.62;45.71;99268.66;114935;1203;103101;-73
2021/04/26 01:35:44;;;;;;;22.60;8.45;;;;;;;1.61;45.86;99266.94;114977;1203;103152;-73
2021/04/26 01:38:24;;;;;;;20.90;7.65;;;;;;;1.61;45.88;99265.19;114893;1203;103047;-74
2021/04/26 01:40:57;;;;;;;23.40;8.40;;;;;;;1.59;45.67;99266.13;114696;1202;103172;-75
2021/04/26 01:43:28;;;;;;;21.57;8.50;;;;;;;1.58;45.59;99275.77;114919;1202;103082;-74
2021/04/26 01:46:01;;;;;;;21.80;7.90;;;;;;;1.57;45.88;99260.95;114867;1203;103044;-74
2021/04/26 01:48:37;;;;;;;24.17;8.33;;;;;;;1.55;46.17;99256.64;114693;1203;103071;-74
2021/04/26 01:51:09;;;;;;;24.90;7.90;;;;;;;1.53;46.10;99261.08;114713;1203;103255;-74
2021/04/26 01:53:41;;;;;;;20.90;7.00;;;;;;;1.52;45.82;99256.74;114758;1202;103155;-74
2021/04/26 01:56:13;;;;;;;21.27;7.67;;;;;;;1.47;45.82;99257.74;114985;1203;103171;-74
2021/04/26 01:58:47;;;;;;;22.55;7.85;;;;;;;1.47;46.21;99262.98;114949;1203;103040;-74
2021/04/26 02:01:19;;;;;;;21.75;7.35;;;;;;;1.45;45.93;99261.34;114975;1203;102880;-76
2021/04/26 02:03:58;;;;;;;19.63;7.20;;;;;;;1.44;46.07;99270.95;114726;1203;103633;-73
2021/04/26 02:06:28;;;;;;;23.40;7.93;;;;;;;1.44;46.46;99264.86;114736;1202;103162;-74
2021/04/26 02:08:58;;;;;;;20.40;7.30;;;;;;;1.45;46.29;99269.20;114968;1202;103175;-74
2021/04/26 02:11:26;;;;;;;20.20;7.50;;;;;;;1.44;46.38;99263.09;114929;1201;103056;-73
2021/04/26 02:13:56;;;;;;;22.30;8.20;;;;;;;1.44;46.39;99257.00;115007;1202;103050;-73
2021/04/26 02:16:26;;;;;;;21.90;7.73;;;;;;;1.42;46.58;99248.33;114990;1202;103088;-72
2021/04/26 02:18:53;;;;;;;20.03;7.07;;;;;;;1.44;46.40;99243.89;115021;1203;103043;-73
2021/04/26 02:21:22;;;;;;;21.75;8.25;;;;;;;1.44;46.51;99247.36;114709;1202;103145;-73
2021/04/26 02:23:50;;;;;;;19.10;7.03;;;;;;;1.46;46.73;99242.92;114969;1202;103038;-75
2021/04/26 02:26:19;;;;;;;21.60;6.20;;;;;;;1.46;46.66;99240.30;114717;1203;103056;-74
2021/04/26 02:28:46;;;;;;;20.17;7.13;;;;;;;1.44;46.87;99239.49;114972;1201;103040;-74
2021/04/26 02:31:21;;;;;;;18.80;6.37;;;;;;;1.45;46.69;99237.74;114739;1201;103043;-73
2021/04/26 02:34:17;;;;;;;21.73;7.77;;;;;;;1.43;46.92;99237.77;114990;1203;103072;-74
2021/04/26 02:36:51;;;;;;;24.75;7.40;;;;;;;1.46;46.74;99240.30;114949;1202;103156;-73
2021/04/26 02:39:22;;;;;;;18.80;6.85;;;;;;;1.43;46.64;99235.16;114946;1201;103145;-75
2021/04/26 02:41:58;;;;;;;19.60;7.15;;;;;;;1.43;47.06;99234.31;114908;1202;103054;-75
2021/04/26 02:44:30;;;;;;;21.63;7.23;;;;;;;1.44;46.92;99231.63;115626;1203;101340;-76
2021/04/26 02:47:10;;;;;;;22.50;7.70;;;;;;;1.45;47.09;99235.13;114963;1203;103089;-74
2021/04/26 02:49:42;;;;;;;18.90;6.45;;;;;;;1.45;47.14;99238.59;114754;1201;103329;-75
2021/04/26 02:52:12;;;;;;;19.40;6.90;;;;;;;1.43;47.40;99229.91;114930;1201;103041;-74
2021/04/26 02:54:43;;;;;;;21.20;7.50;;;;;;;1.40;47.14;99235.28;114888;1203;103069;-73
2021/04/26 02:57:13;;;;;;;19.07;6.30;;;;;;;1.38;46.89;99234.48;114928;1202;103290;-72
2021/04/26 02:59:42;;;;;;;17.70;6.50;;;;;;;1.36;47.07;99241.53;114941;1203;103069;-71
2021/04/26 03:02:12;;;;;;;20.45;6.15;;;;;;;1.34;47.37;99235.48;114943;1203;103676;-70
2021/04/26 03:04:41;;;;;;;19.50;7.30;;;;;;;1.32;47.44;99245.99;115000;1201;103485;-73
2021/04/26 03:07:09;;;;;;;16.63;6.13;;;;;;;1.30;47.00;99250.42;114927;1202;103089;-73
2021/04/26 03:09:37;;;;;;;18.30;6.70;;;;;;;1.25;47.51;99246.25;114881;1203;103175;-74
2021/04/26 03:12:07;;;;;;;20.85;6.65;;;;;;;1.24;47.23;99255.02;114653;1203;103178;-73
2021/04/26 03:14:35;;;;;;;19.70;7.20;;;;;;;1.25;47.20;99247.09;114663;1203;103660;-75
2021/04/26 03:17:03;;;;;;;23.13;7.87;;;;;;;1.24;47.23;99236.67;114942;1201;103078;-75
2021/04/26 03:19:31;;;;;;;18.97;6.40;;;;;;;1.22;47.13;99239.36;114816;1203;103085;-75
2021/04/26 03:22:02;;;;;;;19.23;6.40;;;;;;;1.23;47.44;99242.81;114706;1203;104687;-75
2021/04/26 03:24:29;;;;;;;18.73;6.90;;;;;;;1.23;47.67;99253.30;114911;1202;103072;-75
2021/04/26 03:27:00;;;;;;;21.30;7.70;;;;;;;1.20;47.37;99246.41;114891;1203;103110;-71
2021/04/26 03:29:30;;;;;;;23.00;7.40;;;;;;;1.21;47.47;99249.87;114840;1203;103152;-75
2021/04/26 03:31:59;;;;;;;22.60;6.67;;;;;;;1.21;47.56;99247.25;115002;1203;103085;-76
2021/04/26 03:34:27;;;;;;;21.13;6.80;;;;;;;1.22;47.97;99246.34;114957;1202;103143;-72
2021/04/26 03:36:55;;;;;;;19.53;6.77;;;;;;;1.21;47.71;99245.50;114976;1203;103079;-74
2021/04/26 03:39:23;;;;;;;19.30;6.60;;;;;;;1.22;47.89;99244.59;114716;1202;103056;-75
2021/04/26 03:41:50;;;;;;;20.95;7.70;;;;;;;1.22;47.93;99246.34;114857;1202;103219;-75
2021/04/26 03:44:22;;;;;;;20.20;7.00;;;;;;;1.17;47.79;99241.26;114714;1203;103053;-70
2021/04/26 03:46:56;;;;;;;21.60;7.20;;;;;;;1.19;48.05;99242.91;114594;1203;103140;-74
2021/04/26 03:49:25;;;;;;;19.97;7.23;;;;;;;1.25;47.81;99238.38;114669;1201;103307;-72
2021/04/26 03:51:53;;;;;;;20.23;6.57;;;;;;;1.26;48.22;99246.19;114946;1201;103148;-76
2021/04/26 03:54:21;;;;;;;21.50;7.27;;;;;;;1.28;48.48;99246.16;114913;1202;103068;-74
2021/04/26 03:56:49;;;;;;;19.50;7.20;;;;;;;1.30;48.19;99250.42;114942;1203;103174;-74
2021/04/26 03:59:17;;;;;;;21.67;8.50;;;;;;;1.28;47.93;99241.75;114808;1203;103637;-74
2021/04/26 04:01:45;;;;;;;26.00;10.60;;;;;;;1.10;47.69;99247.59;114977;1202;103046;-73
2021/04/26 04:04:13;;;;;;;33.30;14.47;;;;;;;0.83;47.57;99247.50;114842;1201;103105;-72
2021/04/26 04:06:40;;;;;;;29.80;12.70;;;;;;;0.60;47.57;99251.67;114929;1202;103066;-85
2021/04/26 04:09:08;;;;;;;32.40;12.15;;;;;;;0.37;48.14;99245.34;114985;1202;103129;-80
2021/04/26 04:11:36;;;;;;;29.85;12.15;;;;;;;0.21;48.45;99242.27;115017;1201;103085;-81
2021/04/26 04:14:04;;;;;;;29.40;11.57;;;;;;;0.15;48.52;99239.85;114830;1202;103191;-79
2021/04/26 04:16:32;;;;;;;25.35;10.60;;;;;;;0.22;48.20;99251.84;114916;1201;103159;-72
2021/04/26 04:19:00;;;;;;;27.45;11.30;;;;;;;0.31;48.21;99245.52;114899;1203;103072;-72
2021/04/26 04:21:27;;;;;;;25.35;11.20;;;;;;;0.40;48.44;99247.01;114911;1202;103072;-73
2021/04/26 04:23:55;;;;;;;26.03;11.50;;;;;;;0.47;48.59;99245.06;114798;1201;103070;-73
2021/04/26 04:26:22;;;;;;;29.55;11.80;;;;;;;0.54;48.58;99241.38;114912;1202;103219;-73
2021/04/26 04:28:50;;;;;;;27.00;10.03;;;;;;;0.58;48.53;99254.34;114694;1203;103137;-73
2021/04/26 04:31:17;;;;;;;28.37;11.07;;;;;;;0.60;48.98;99254.29;114675;1203;103214;-74
2021/04/26 04:33:44;;;;;;;26.37;9.47;;;;;;;0.62;48.64;99262.09;114974;1202;103089;-73
2021/04/26 04:36:12;;;;;;;26.95;10.28;;;;;;;0.66;48.97;99248.88;115014;1203;103075;-74
2021/04/26 04:38:40;;;;;;;23.05;9.50;;;;;;;0.72;49.27;99247.83;114712;1202;103181;-73
2021/04/26 04:41:07;;;;;;;23.40;8.60;;;;;;;0.77;49.21;99251.17;114970;1203;103072;-74
2021/04/26 04:43:34;;;;;;;24.80;8.80;;;;;;;0.84;49.59;99246.60;114974;1202;103043;-73
2021/04/26 04:46:06;;;;;;;26.03;10.60;;;;;;;0.90;49.67;99249.04;114979;1203;103092;-73
2021/04/26 04:48:34;;;;;;;23.20;8.17;;;;;;;0.99;49.94;99253.17;114983;1203;103066;-73
2021/04/26 04:51:02;;;;;;;23.30;7.83;;;;;;;1.08;49.69;99247.63;114957;1202;103142;-73
2021/04/26 04:53:30;;;;;;;19.75;6.45;;;;;;;1.16;49.63;99253.48;114986;1203;103185;-72
2021/04/26 04:55:57;;;;;;;20.95;6.50;;;;;;;1.27;49.73;99268.02;114954;1202;103050;-73
2021/04/26 04:58:24;;;;;;;20.20;6.60;;;;;;;1.36;49.49;99264.25;114979;1203;103148;-73
2021/04/26 05:00:51;;;;;;;20.87;7.33;;;;;;;1.43;49.79;99260.53;115011;1202;103040;-73
2021/04/26 05:03:19;;;;;;;17.80;6.45;;;;;;;1.50;49.87;99275.16;114983;1203;103145;-73
2021/04/26 05:05:46;;;;;;;20.73;6.93;;;;;;;1.57;49.93;99268.81;114986;1201;103146;-72
2021/04/26 05:08:14;;;;;;;20.93;6.90;;;;;;;1.66;49.80;99272.89;114978;1203;103587;-73
2021/04/26 05:10:41;;;;;;;18.23;6.63;;;;;;;1.72;50.35;99275.31;114933;1203;103120;-73
2021/04/26 05:13:09;;;;;;;17.40;6.30;;;;;;;1.78;49.90;99269.00;114925;1202;103039;-73
2021/04/26 05:15:37;;;;;;;17.90;6.37;;;;;;;1.83;50.08;99269.70;114936;1201;103190;-74
2021/04/26 05:18:06;;;;;;;17.53;6.33;;;;;;;1.90;50.23;99267.72;114953;1203;103088;-73
2021/04/26 05:20:36;;;;;;;18.20;6.90;;;;;;;1.97;50.09;99263.98;114984;1203;103059;-74
2021/04/26 05:23:03;;;;;;;20.87;7.40;;;;;;;2.04;50.03;99268.12;114966;1203;103185;-74
2021/04/26 05:25:30;;;;;;;19.97;6.93;;;;;;;2.11;50.30;99265.28;114923;1203;103117;-73
2021/04/26 05:27:58;;;;;;;18.50;7.00;;;;;;;2.18;50.08;99259.76;114951;1202;103232;-72
2021/04/26 05:30:25;;;;;;;22.67;6.70;;;;;;;2.27;50.46;99260.35;114953;1203;103071;-72
2021/04/26 05:32:57;;;;;;;21.00;6.30;;;;;;;2.33;50.54;99262.77;115024;1203;103088;-72
2021/04/26 05:35:25;;;;;;;21.87;6.90;;;;;;;2.43;50.20;99268.53;114980;1203;103063;-73
2021/04/26 05:37:53;;;;;;;27.75;7.55;;;;;;;2.49;50.29;99265.69;114986;1203;103113;-71
2021/04/26 05:40:21;;;;;;;20.57;6.67;;;;;;;2.58;50.67;99273.23;114961;1203;103088;-72
2021/04/26 05:42:48;;;;;;;20.15;7.45;;;;;;;2.67;50.53;99266.78;114956;1203;103159;-74
2021/04/26 05:45:18;;;;;;;18.33;6.10;;;;;;;2.73;50.44;99268.31;114972;1203;103150;-74
2021/04/26 05:47:45;;;;;;;18.40;6.00;;;;;;;2.81;50.43;99271.52;114975;1203;103091;-72
2021/04/26 05:50:13;;;;;;;22.80;6.97;;;;;;;2.88;50.40;99273.00;114935;1203;103085;-72
2021/04/26 05:52:40;;;;;;;19.13;6.60;;;;;;;2.96;50.29;99277.95;114891;1203;103089;-73
2021/04/26 05:55:08;;;;;;;18.95;7.45;;;;;;;3.04;50.29;99281.16;114835;1202;103526;-74
2021/04/26 05:57:35;;;;;;;16.00;6.10;;;;;;;3.12;51.19;99286.11;114971;1202;103069;-73
2021/04/26 06:00:05;;;;;;;16.17;6.07;;;;;;;3.21;51.15;99287.55;114842;1203;103149;-72
2021/04/26 06:02:32;;;;;;;22.87;7.00;;;;;;;3.31;50.54;99288.88;115013;1202;103069;-71
2021/04/26 06:04:59;;;;;;;17.10;6.45;;;;;;;3.40;51.01;99291.14;114956;1201;103123;-70
2021/04/26 06:07:27;;;;;;;19.33;6.40;;;;;;;3.50;50.43;99288.16;114951;1203;103145;-70
2021/04/26 06:09:54;;;;;;;15.70;6.17;;;;;;;3.64;51.04;99290.22;114966;1203;103164;-72
2021/04/26 06:12:21;;;;;;;18.40;6.80;;;;;;;3.76;50.87;99284.47;114940;1203;103149;-72
2021/04/26 06:14:48;;;;;;;22.07;5.43;;;;;;;3.88;50.54;99289.20;114959;1203;103162;-74
2021/04/26 06:17:16;;;;;;;17.87;6.00;;;;;;;4.00;50.54;99289.62;114972;1203;103066;-67
2021/04/26 06:19:43;;;;;;;16.43;5.20;;;;;;;4.11;51.19;99283.89;114923;1203;103073;-69
2021/04/26 06:22:10;;;;;;;17.70;6.10;;;;;;;4.21;50.94;99281.73;114869;1203;103091;-69
2021/04/26 06:24:38;;;;;;;16.50;5.30;;;;;;;4.34;50.92;99280.27;114676;1202;103069;-67
2021/04/26 06:27:05;;;;;;;17.58;5.40;;;;;;;4.44;51.36;99278.95;114985;1203;103038;-79
2021/04/26 06:29:33;;;;;;;19.10;5.60;;;;;;;4.54;50.77;99275.91;114976;1203;103068;-73
2021/04/26 06:32:00;;;;;;;17.03;5.10;;;;;;;4.63;51.08;99264.97;114956;1203;103145;-73
2021/04/26 06:34:28;;;;;;;12.75;4.60;;;;;;;4.73;51.10;99262.77;114903;1202;103504;-74
2021/04/26 06:36:56;;;;;;;18.70;5.95;;;;;;;4.85;50.57;99263.97;114668;1203;103145;-74
2021/04/26 06:39:23;;;;;;;15.30;5.00;;;;;;;4.96;50.97;99256.44;114896;1203;103078;-73
2021/04/26 06:41:51;;;;;;;14.10;5.37;;;;;;;5.05;51.22;99255.14;114666;1203;103137;-73
2021/04/26 06:44:18;;;;;;;23.20;8.20;;;;;;;5.18;51.25;99247.50;114823;1203;103114;-74
2021/04/26 06:46:46;;;;;;;13.53;5.00;;;;;;;5.33;51.14;99245.91;114986;1203;103155;-73
2021/04/26 06:49:15;;;;;;;16.25;5.50;;;;;;;5.51;51.16;99239.74;114739;1203;103149;-73
2021/04/26 06:51:42;;;;;;;14.93;5.30;;;;;;;5.68;50.80;99235.43;114960;1202;103148;-73
2021/04/26 06:54:14;;;;;;;19.30;4.95;;;;;;;5.84;51.19;99239.92;114976;1202;103139;-73
2021/04/26 06:56:42;;;;;;;16.60;5.40;;;;;;;5.97;50.93;99235.73;114956;1203;103089;-73
2021/04/26 06:59:09;;;;;;;12.93;4.97;;;;;;;6.01;51.13;99232.04;114963;1202;103114;-72
2021/04/26 07:01:36;;;;;;;15.50;4.87;;;;;;;6.08;50.98;99241.36;114922;1203;103072;-73
2021/04/26 07:04:06;;;;;;;13.03;4.40;;;;;;;6.13;51.12;99222.63;114959;1202;103181;-74
2021/04/26 07:06:33;;;;;;;12.67;4.27;;;;;;;6.23;51.08;99234.42;114891;1203;103142;-74
2021/04/26 07:09:00;;;;;;;15.30;4.60;;;;;;;7.55;49.93;99227.25;114909;1203;103063;-72
2021/04/26 07:11:28;;;;;;;14.97;4.70;;;;;;;9.89;48.66;99227.84;114880;1202;103704;-73
2021/04/26 07:13:55;;;;;;;13.70;4.50;;;;;;;10.17;50.38;99212.70;114686;1203;103072;-74
2021/04/26 07:16:23;;;;;;;13.40;4.60;;;;;;;9.90;50.94;99220.74;114995;1201;103065;-74
2021/04/26 07:18:51;;;;;;;15.35;4.70;;;;;;;9.64;51.23;99223.32;114968;1203;103204;-73
2021/04/26 07:21:18;;;;;;;16.35;5.75;;;;;;;9.30;50.92;99231.72;114947;1203;103124;-74
2021/04/26 07:23:45;;;;;;;16.60;5.45;;;;;;;8.92;51.23;99240.34;114713;1202;103207;-73
2021/04/26 07:26:13;;;;;;;15.60;5.50;;;;;;;8.58;50.71;99248.59;114933;1202;103153;-73
2021/04/26 07:28:40;;;;;;;19.80;7.05;;;;;;;8.13;50.84;99250.40;114933;1202;103143;-73
2021/04/26 07:31:08;;;;;;;26.73;9.73;;;;;;;8.09;50.29;99247.09;114923;1202;103630;-74
2021/04/26 07:33:37;;;;;;;23.17;8.03;;;;;;;8.92;49.90;99245.64;114939;1203;103155;-74
2021/04/26 07:36:06;;;;;;;22.63;8.23;;;;;;;8.72;50.37;99249.55;114884;1202;103169;-73
2021/04/26 07:38:34;;;;;;;20.65;8.20;;;;;;;8.73;50.26;99240.64;114951;1202;103075;-73
2021/04/26 07:41:02;;;;;;;22.33;8.23;;;;;;;8.76;50.16;99233.33;114941;1202;103158;-73
2021/04/26 07:43:29;;;;;;;23.70;7.75;;;;;;;8.53;50.39;99228.63;114929;1202;103184;-74
2021/04/26 07:45:56;;;;;;;22.70;7.10;;;;;;;8.32;50.42;99236.89;114885;1203;103068;-73
2021/04/26 07:48:24;;;;;;;17.07;6.27;;;;;;;8.80;49.89;99233.98;114915;1202;103062;-73
2021/04/26 07:50:51;;;;;;;17.40;5.60;;;;;;;9.27;49.75;99231.92;114775;1201;103072;-74
2021/04/26 07:53:18;;;;;;;17.70;5.93;;;;;;;11.14;48.55;99220.98;114801;1202;103031;-73
2021/04/26 07:55:46;;;;;;;19.50;7.13;;;;;;;12.86;48.56;99209.83;114822;1203;103072;-72
2021/04/26 07:58:13;;;;;;;16.20;5.90;;;;;;;14.52;49.10;99206.81;114869;1202;103249;-72
2021/04/26 08:00:41;;;;;;;16.70;6.50;;;;;;;16.03;48.85;99202.34;114892;1202;103089;-81
2021/04/26 08:03:08;;;;;;;13.30;5.43;;;;;;;17.39;49.23;99192.99;114808;1202;103187;-72
2021/04/26 08:05:36;;;;;;;16.30;5.40;;;;;;;18.29;48.47;99195.63;114720;1202;103040;-72
2021/04/26 08:08:04;;;;;;;13.63;5.20;;;;;;;18.99;48.48;99195.66;114695;1203;103037;-72
2021/04/26 08:10:31;;;;;;;14.90;6.05;;;;;;;19.46;48.18;99197.80;114729;1203;103142;-71
2021/04/26 08:12:58;;;;;;;18.67;6.27;;;;;;;20.04;48.34;99192.44;114778;1202;103187;-71
2021/04/26 08:15:26;;;;;;;13.90;5.80;;;;;;;20.24;48.33;99189.39;114804;1202;103081;-72
2021/04/26 08:17:55;;;;;;;12.37;6.00;;;;;;;20.61;48.71;99192.49;114810;1203;103078;-71
2021/04/26 08:20:22;;;;;;;16.30;5.60;;;;;;;21.29;48.89;99183.94;114849;1202;103194;-70
2021/04/26 08:22:49;;;;;;;15.90;5.97;;;;;;;21.49;48.04;99190.58;114847;1202;103193;-70
2021/04/26 08:25:17;;;;;;;15.27;5.87;;;;;;;21.59;47.74;99179.52;114882;1202;103098;-71
2021/04/26 08:27:45;;;;;;;15.77;5.80;;;;;;;21.79;47.91;99170.95;114872;1202;103082;-70
2021/04/26 08:30:13;;;;;;;16.50;5.90;;;;;;;21.52;47.05;99167.72;114739;1203;103145;-71
2021/04/26 08:32:40;;;;;;;14.60;6.15;;;;;;;21.26;46.79;99177.03;114684;1202;103112;-71
2021/04/26 08:35:09;;;;;;;15.53;6.20;;;;;;;19.87;46.91;99188.88;114839;1202;103069;-70
2021/04/26 08:37:36;;;;;;;17.00;6.60;;;;;;;19.53;47.09;99187.18;114605;1203;103078;-71
2021/04/26 08:40:05;;;;;;;15.87;6.37;;;;;;;19.27;46.74;99185.46;114889;1203;103037;-72
2021/04/26 08:42:32;;;;;;;14.40;6.05;;;;;;;18.28;45.70;99191.25;114884;1203;103085;-72
2021/04/26 08:45:00;;;;;;;15.65;6.35;;;;;;;16.51;44.43;99191.59;114691;1202;103700;-72
2021/04/26 08:47:28;;;;;;;14.30;5.55;;;;;;;14.84;44.30;99211.22;114746;1202;103071;-72
2021/04/26 08:49:58;;;;;;;10.00;4.27;;;;;;;13.70;44.47;99208.42;114861;1202;103092;-71
2021/04/26 08:52:26;;;;;;;12.10;4.90;;;;;;;12.86;44.07;99198.28;114910;1203;103082;-72
2021/04/26 08:54:54;;;;;;;15.13;4.27;;;;;;;12.31;44.18;99207.03;114910;1203;103117;-72
2021/04/26 08:57:21;;;;;;;9.35;4.00;;;;;;;12.18;43.61;99212.48;114843;1202;103212;-71
2021/04/26 08:59:49;;;;;;;12.05;4.40;;;;;;;13.10;43.10;99198.99;114903;1203;103184;-73
2021/04/26 09:02:16;;;;;;;10.17;4.23;;;;;;;13.82;43.09;99209.20;114846;1201;103145;-72
2021/04/26 09:04:50;;;;;;;11.07;4.00;;;;;;;13.98;42.17;99203.41;114799;1202;103195;-71
2021/04/26 09:07:19;;;;;;;11.50;4.00;;;;;;;14.14;42.23;99206.48;114875;1202;103535;-71
2021/04/26 09:09:51;;;;;;;10.05;4.00;;;;;;;14.51;42.02;99205.12;114849;1203;103043;-72
2021/04/26 09:12:21;;;;;;;13.25;4.10;;;;;;;13.74;42.37;99193.83;114878;1202;103522;-72
2021/04/26 09:14:51;;;;;;;16.40;5.05;;;;;;;13.23;42.18;99206.84;114857;1203;103162;-72
2021/04/26 09:17:36;;;;;;;13.25;4.70;;;;;;;12.89;42.39;99201.58;114835;1201;103523;-72
2021/04/26 09:20:16;;;;;;;13.20;4.00;;;;;;;13.31;41.99;99192.85;114900;1203;103088;-71
2021/04/26 09:22:54;;;;;;;10.53;4.03;;;;;;;13.98;41.80;99190.04;114714;1203;103127;-71
2021/04/26 09:25:43;;;;;;;9.63;4.40;;;;;;;13.51;41.55;99187.73;114696;1202;103303;-71
2021/04/26 09:28:19;;;;;;;10.63;4.10;;;;;;;12.79;41.61;99190.80;114584;1203;103153;-71
2021/04/26 09:30:54;;;;;;;9.60;3.80;;;;;;;12.40;41.60;99200.13;114891;1203;103149;-71
2021/04/26 09:33:27;;;;;;;7.40;3.30;;;;;;;12.69;41.48;99202.30;114856;1202;103226;-72
2021/04/26 09:36:00;;;;;;;10.97;3.50;;;;;;;13.32;40.88;99197.22;114755;1203;103069;-71
2021/04/26 09:38:29;;;;;;;8.30;3.00;;;;;;;13.06;40.73;99181.52;114789;1202;103162;-72
2021/04/26 09:41:18;;;;;;;8.40;3.35;;;;;;;13.44;40.94;99195.41;114696;1203;103053;-71
2021/04/26 09:44:07;;;;;;;19.50;6.70;;;;;;;13.64;40.49;99185.73;114798;1203;103117;-72
2021/04/26 09:46:50;;;;;;;12.10;3.65;;;;;;;13.88;40.88;99186.44;114905;1203;103149;-73
2021/04/26 09:49:21;;;;;;;9.58;3.48;;;;;;;13.89;40.31;99196.16;114901;1202;103152;-74
2021/04/26 09:51:55;;;;;;;9.65;3.10;;;;;;;13.42;40.50;99193.83;114712;1202;103928;-73
2021/04/26 09:54:34;;;;;;;15.65;6.00;;;;;;;13.04;40.32;99206.66;114646;1202;103044;-73
2021/04/26 09:57:02;;;;;;;23.25;8.75;;;;;;;12.74;40.21;99202.79;114662;1203;103063;-72
2021/04/26 09:59:29;;;;;;;5.70;3.15;;;;;;;12.36;39.48;99195.03;114732;1202;103159;-73
2021/04/26 10:01:58;;;;;;;7.93;3.30;;;;;;;11.98;39.30;99206.81;114940;1202;103075;-72
2021/04/26 10:04:26;;;;;;;7.87;2.77;;;;;;;11.55;38.87;99192.27;114876;1202;103631;-71
2021/04/26 10:06:54;;;;;;;8.17;2.77;;;;;;;11.30;39.41;99198.57;114891;1201;103146;-73
2021/04/26 10:09:22;;;;;;;13.15;4.10;;;;;;;11.25;39.24;99190.91;114833;1202;103152;-73
2021/04/26 10:11:50;;;;;;;10.97;4.33;;;;;;;11.25;39.08;99203.38;114933;1203;103143;-75
2021/04/26 10:14:18;;;;;;;8.83;3.40;;;;;;;11.13;39.08;99195.33;114881;1202;103167;-72
2021/04/26 10:16:54;;;;;;;8.45;3.00;;;;;;;10.98;39.22;99181.33;114858;1202;103038;-73
2021/04/26 10:19:47;;;;;;;7.27;3.27;;;;;;;10.92;39.05;99178.27;114750;1202;103136;-72
2021/04/26 10:22:33;;;;;;;10.17;2.80;;;;;;;11.04;38.74;99190.66;114741;1202;103072;-73
2021/04/26 10:25:04;;;;;;;12.17;4.07;;;;;;;10.89;38.44;99197.12;114609;1202;103239;-72
2021/04/26 10:27:38;;;;;;;8.10;2.75;;;;;;;10.72;38.51;99181.41;114552;1202;104610;-71
2021/04/26 10:30:11;;;;;;;26.70;14.50;;;;;;;10.53;38.55;99199.63;114711;1202;103092;-74
2021/04/26 10:33:03;;;;;;;9.53;3.80;;;;;;;10.26;37.72;99195.25;114879;1202;103197;-73
2021/04/26 10:35:51;;;;;;;10.35;3.30;;;;;;;10.05;38.32;99195.77;114789;1202;103104;-73
2021/04/26 10:38:35;;;;;;;10.15;3.00;;;;;;;9.93;38.18;99183.34;114906;1201;103040;-75
2021/04/26 10:41:05;;;;;;;10.20;3.80;;;;;;;9.77;38.02;99184.37;114896;1202;103085;-77
2021/04/26 10:43:34;;;;;;;11.65;3.20;;;;;;;9.64;37.86;99172.86;114667;1203;103107;-74
2021/04/26 10:46:30;;;;;;;8.10;2.50;;;;;;;9.61;37.67;99179.24;114946;1203;103052;-74
2021/04/26 10:49:08;;;;;;;10.03;3.47;;;;;;;9.58;37.61;99183.92;114802;1203;103152;-73
2021/04/26 10:51:38;;;;;;;13.37;4.00;;;;;;;9.73;38.02;99190.00;114919;1202;103066;-75
2021/04/26 10:54:06;;;;;;;9.25;3.00;;;;;;;9.77;37.67;99183.53;114952;1203;103130;-72
2021/04/26 10:56:36;;;;;;;5.83;2.57;;;;;;;9.60;37.54;99188.16;114920;1202;103133;-74
2021/04/26 10:59:13;;;;;;;7.37;2.43;;;;;;;9.39;37.55;99195.75;114678;1201;103624;-73
2021/04/26 11:01:51;;;;;;;8.35;3.15;;;;;;;9.24;37.15;99189.64;114902;1203;103063;-74
2021/04/26 11:04:20;;;;;;;7.87;3.30;;;;;;;9.21;37.41;99184.53;115591;1203;103034;-74
2021/04/26 11:07:19;;;;;;;11.90;3.77;;;;;;;9.34;37.26;99185.45;114817;1202;103188;-73
2021/04/26 11:09:49;;;;;;;7.35;2.90;;;;;;;9.34;36.99;99168.65;114682;1202;103155;-73
2021/04/26 11:12:34;;;;;;;7.17;2.87;;;;;;;9.28;37.18;99171.70;114902;1203;103533;-73
2021/04/26 11:15:21;;;;;;;10.63;3.03;;;;;;;9.25;37.26;99175.42;115092;1202;103210;-74
2021/04/26 11:17:50;;;;;;;9.00;2.97;;;;;;;9.23;37.32;99191.44;114947;1202;103072;-72
2021/04/26 11:20:27;;;;;;;7.45;2.85;;;;;;;9.13;37.15;99187.70;114935;1203;103140;-72
2021/04/26 11:22:58;;;;;;;7.57;3.20;;;;;;;9.19;37.45;99187.27;114765;1202;103158;-73
2021/04/26 11:25:34;;;;;;;7.20;3.00;;;;;;;9.18;36.82;99177.61;114915;1203;103108;-73
2021/04/26 11:28:04;;;;;;;10.43;3.00;;;;;;;9.22;36.90;99175.63;114657;1203;103133;-74
2021/04/26 11:30:34;;;;;;;7.97;2.60;;;;;;;9.24;37.25;99168.41;114769;1202;103162;-73
2021/04/26 11:33:08;;;;;;;7.70;2.57;;;;;;;9.24;36.70;99179.87;114865;1203;103149;-73